createdAt,value
2023-03-21T00:00:09.325Z,0
2023-03-21T00:01:09.919Z,0
2023-03-21T00:02:10.544Z,0
2023-03-21T00:03:11.222Z,0
2023-03-21T00:04:11.966Z,0
2023-03-21T00:05:15.720Z,0
2023-03-21T00:06:14.160Z,0
2023-03-21T00:07:14.755Z,0
2023-03-21T00:08:15.348Z,0
2023-03-21T00:09:15.953Z,0
2023-03-21T00:10:23.916Z,0
2023-03-21T00:11:18.290Z,0
2023-03-21T00:12:18.889Z,0
2023-03-21T00:13:19.484Z,0
2023-03-21T00:14:20.193Z,0
2023-03-21T00:15:24.885Z,0
2023-03-21T00:16:37.170Z,0
2023-03-21T00:17:24.294Z,0
2023-03-21T00:18:24.887Z,0
2023-03-21T00:19:25.484Z,0
2023-03-21T00:20:26.081Z,0
2023-03-21T00:22:28.259Z,0
2023-03-21T00:23:28.857Z,0
2023-03-21T00:24:29.451Z,0
2023-03-21T00:25:30.046Z,0
2023-03-21T00:26:30.641Z,0
2023-03-21T00:27:50.026Z,0
2023-03-21T00:28:32.823Z,0
2023-03-21T00:29:33.424Z,0
2023-03-21T00:30:34.018Z,0
2023-03-21T00:31:34.622Z,0
2023-03-21T00:32:39.773Z,0
2023-03-21T00:33:36.825Z,0
2023-03-21T00:34:43.297Z,0
2023-03-21T00:35:58.489Z,0
2023-03-21T00:36:39.630Z,0
2023-03-21T00:37:40.213Z,0
2023-03-21T00:38:40.828Z,0
2023-03-21T00:39:41.407Z,0
2023-03-21T00:40:48.720Z,0
2023-03-21T00:41:43.675Z,0
2023-03-21T00:42:44.277Z,0
2023-03-21T00:43:44.872Z,0
2023-03-21T00:44:45.469Z,0
2023-03-21T00:45:46.067Z,0
2023-03-21T00:47:00.741Z,0
2023-03-21T00:47:48.277Z,0
2023-03-21T00:48:48.838Z,0
2023-03-21T00:49:49.434Z,0
2023-03-21T00:50:50.038Z,0
2023-03-21T00:51:50.625Z,0
2023-03-21T00:52:51.221Z,0
2023-03-21T00:53:51.815Z,0
2023-03-21T00:54:52.410Z,0
2023-03-21T00:55:53.005Z,0
2023-03-21T00:56:53.613Z,0
2023-03-21T00:58:01.503Z,0
2023-03-21T00:58:55.794Z,0
2023-03-21T00:59:56.381Z,0
2023-03-21T01:00:57.004Z,0
2023-03-21T01:01:57.626Z,0
2023-03-21T01:03:08.565Z,0
2023-03-21T01:03:59.793Z,0
2023-03-21T01:05:00.389Z,0
2023-03-21T01:06:01.012Z,0
2023-03-21T01:07:01.579Z,0
2023-03-21T01:08:06.025Z,0
2023-03-21T01:09:02.786Z,0
2023-03-21T01:10:03.382Z,0
2023-03-21T01:11:03.973Z,0
2023-03-21T01:12:04.570Z,0
2023-03-21T01:13:05.193Z,0
2023-03-21T01:14:21.019Z,0
2023-03-21T01:15:07.376Z,0
2023-03-21T01:16:08.018Z,0
2023-03-21T01:17:08.603Z,0
2023-03-21T01:18:09.198Z,0
2023-03-21T01:19:22.116Z,0
2023-03-21T01:20:11.378Z,0
2023-03-21T01:21:11.981Z,0
2023-03-21T01:22:12.584Z,0
2023-03-21T01:23:13.167Z,0
2023-03-21T01:24:13.759Z,0
2023-03-21T01:25:22.233Z,0
2023-03-21T01:26:15.987Z,0
2023-03-21T01:27:16.560Z,0
2023-03-21T01:28:17.168Z,0
2023-03-21T01:29:17.751Z,0
2023-03-21T01:30:22.741Z,0
2023-03-21T01:31:19.961Z,0
2023-03-21T01:32:20.542Z,0
2023-03-21T01:33:21.128Z,0
2023-03-21T01:34:21.726Z,0
2023-03-21T01:35:22.341Z,0
2023-03-21T01:36:24.329Z,0
2023-03-21T01:37:24.544Z,0
2023-03-21T01:38:25.121Z,0
2023-03-21T01:39:25.713Z,0
2023-03-21T01:40:26.314Z,0
2023-03-21T01:41:36.587Z,0
2023-03-21T01:42:28.492Z,0
2023-03-21T01:43:29.088Z,0
2023-03-21T01:44:29.681Z,0
2023-03-21T01:45:30.303Z,0
2023-03-21T01:46:37.269Z,0
2023-03-21T01:47:32.461Z,0
2023-03-21T01:48:33.058Z,0
2023-03-21T01:49:33.675Z,0
2023-03-21T01:50:34.275Z,0
2023-03-21T01:51:34.866Z,0
2023-03-21T01:52:37.898Z,0
2023-03-21T01:53:37.049Z,0
2023-03-21T01:54:37.643Z,0
2023-03-21T01:55:38.523Z,0
2023-03-21T01:56:39.261Z,0
2023-03-21T01:57:47.344Z,0
2023-03-21T01:58:41.324Z,0
2023-03-21T01:59:41.924Z,0
2023-03-21T02:00:42.532Z,0
2023-03-21T02:01:43.109Z,0
2023-03-21T02:02:43.704Z,0
2023-03-21T02:03:44.344Z,0
2023-03-21T02:04:44.929Z,0
2023-03-21T02:05:45.515Z,0
2023-03-21T02:06:46.112Z,0
2023-03-21T02:07:46.707Z,0
2023-03-21T02:08:47.301Z,0
2023-03-21T02:09:47.893Z,0
2023-03-21T02:10:50.516Z,0
2023-03-21T02:11:50.079Z,0
2023-03-21T02:12:50.680Z,0
2023-03-21T02:13:55.825Z,0
2023-03-21T02:14:52.869Z,0
2023-03-21T02:15:53.453Z,0
2023-03-21T02:16:54.147Z,0
2023-03-21T02:17:54.676Z,0
2023-03-21T02:18:55.281Z,0
2023-03-21T02:19:55.869Z,0
2023-03-21T02:20:56.471Z,0
2023-03-21T02:21:57.061Z,0
2023-03-21T02:22:57.655Z,0
2023-03-21T02:23:58.254Z,0
2023-03-21T02:25:04.260Z,0
2023-03-21T02:26:00.439Z,0
2023-03-21T02:27:04.271Z,0
2023-03-21T02:28:02.506Z,0
2023-03-21T02:29:03.108Z,0
2023-03-21T02:30:03.696Z,0
2023-03-21T02:31:04.348Z,0
2023-03-21T02:32:16.463Z,0
2023-03-21T02:33:06.508Z,0
2023-03-21T02:34:07.111Z,0
2023-03-21T02:35:07.709Z,0
2023-03-21T02:36:13.910Z,0
2023-03-21T02:37:09.892Z,0
2023-03-21T02:38:10.511Z,0
2023-03-21T02:39:11.101Z,0
2023-03-21T02:40:11.706Z,0
2023-03-21T02:41:18.207Z,0
2023-03-21T02:42:13.879Z,0
2023-03-21T02:43:22.949Z,0
2023-03-21T02:44:16.206Z,0
2023-03-21T02:45:16.697Z,0
2023-03-21T02:46:17.331Z,0
2023-03-21T02:47:17.944Z,0
2023-03-21T02:48:27.753Z,0
2023-03-21T02:49:20.095Z,0
2023-03-21T02:50:20.688Z,0
2023-03-21T02:51:21.281Z,0
2023-03-21T02:52:38.802Z,0
2023-03-21T02:53:23.465Z,0
2023-03-21T02:54:38.418Z,0
2023-03-21T02:55:25.552Z,0
2023-03-21T02:56:26.143Z,0
2023-03-21T02:57:33.724Z,0
2023-03-21T02:58:28.330Z,0
2023-03-21T02:59:28.921Z,0
2023-03-21T03:00:29.516Z,0
2023-03-21T03:01:30.121Z,0
2023-03-21T03:02:30.707Z,0
2023-03-21T03:03:34.698Z,0
2023-03-21T03:04:32.683Z,0
2023-03-21T03:05:33.270Z,0
2023-03-21T03:06:33.863Z,0
2023-03-21T03:07:34.462Z,0
2023-03-21T03:08:43.296Z,0
2023-03-21T03:09:36.524Z,0
2023-03-21T03:10:37.404Z,0
2023-03-21T03:11:38.057Z,0
2023-03-21T03:12:38.648Z,0
2023-03-21T03:13:39.261Z,0
2023-03-21T03:14:53.025Z,0
2023-03-21T03:15:41.345Z,0
2023-03-21T03:16:41.918Z,0
2023-03-21T03:17:42.514Z,0
2023-03-21T03:18:43.113Z,0
2023-03-21T03:19:49.972Z,0
2023-03-21T03:20:45.298Z,0
2023-03-21T03:21:45.911Z,0
2023-03-21T03:22:46.508Z,0
2023-03-21T03:23:47.124Z,0
2023-03-21T03:24:47.719Z,0
2023-03-21T03:25:48.314Z,0
2023-03-21T03:26:48.910Z,0
2023-03-21T03:27:49.505Z,0
2023-03-21T03:28:50.106Z,0
2023-03-21T03:29:50.720Z,0
2023-03-21T03:31:07.690Z,0
2023-03-21T03:31:52.952Z,0
2023-03-21T03:32:53.585Z,0
2023-03-21T03:33:54.196Z,0
2023-03-21T03:34:54.792Z,0
2023-03-21T03:36:04.950Z,0
2023-03-21T03:36:56.928Z,0
2023-03-21T03:37:57.525Z,0
2023-03-21T03:38:58.119Z,0
2023-03-21T03:39:58.733Z,0
2023-03-21T03:40:59.333Z,0
2023-03-21T03:42:27.570Z,0
2023-03-21T03:43:01.524Z,0
2023-03-21T03:44:02.107Z,0
2023-03-21T03:45:02.703Z,0
2023-03-21T03:46:03.317Z,0
2023-03-21T03:47:03.922Z,0
2023-03-21T03:48:04.553Z,0
2023-03-21T03:49:05.105Z,0
2023-03-21T03:50:05.702Z,0
2023-03-21T03:51:06.293Z,0
2023-03-21T03:52:06.887Z,0
2023-03-21T03:53:17.583Z,0
2023-03-21T03:54:09.087Z,0
2023-03-21T03:55:09.685Z,0
2023-03-21T03:56:10.284Z,0
2023-03-21T03:57:10.874Z,0
2023-03-21T03:58:21.664Z,0
2023-03-21T03:59:13.060Z,0
2023-03-21T04:00:13.654Z,0
2023-03-21T04:01:14.306Z,0
2023-03-21T04:02:15.009Z,0
2023-03-21T04:03:15.515Z,0
2023-03-21T04:04:16.122Z,0
2023-03-21T04:05:16.700Z,0
2023-03-21T04:06:17.289Z,0
2023-03-21T04:07:17.895Z,0
2023-03-21T04:08:18.479Z,0
2023-03-21T04:09:23.548Z,0
2023-03-21T04:10:20.668Z,0
2023-03-21T04:11:21.282Z,0
2023-03-21T04:12:21.857Z,0
2023-03-21T04:13:22.461Z,0
2023-03-21T04:14:23.275Z,0
2023-03-21T04:15:24.283Z,0
2023-03-21T04:16:24.909Z,0
2023-03-21T04:17:25.474Z,0
2023-03-21T04:18:26.070Z,0
2023-03-21T04:19:26.665Z,0
2023-03-21T04:20:36.465Z,0
2023-03-21T04:21:28.870Z,0
2023-03-21T04:22:29.465Z,0
2023-03-21T04:23:30.077Z,0
2023-03-21T04:24:30.676Z,0
2023-03-21T04:25:34.087Z,0
2023-03-21T04:26:32.877Z,0
2023-03-21T04:27:33.453Z,0
2023-03-21T04:28:34.073Z,0
2023-03-21T04:29:34.674Z,0
2023-03-21T04:30:35.437Z,0
2023-03-21T04:31:36.173Z,0
2023-03-21T04:32:36.678Z,0
2023-03-21T04:33:37.276Z,0
2023-03-21T04:34:37.877Z,0
2023-03-21T04:35:38.513Z,0
2023-03-21T04:36:39.486Z,0
2023-03-21T04:37:39.687Z,0
2023-03-21T04:38:40.283Z,0
2023-03-21T04:39:40.880Z,0
2023-03-21T04:40:41.495Z,0
2023-03-21T04:41:42.114Z,0
2023-03-21T04:42:42.708Z,0
2023-03-21T04:43:43.321Z,0
2023-03-21T04:44:43.933Z,0
2023-03-21T04:45:44.555Z,0
2023-03-21T04:46:45.121Z,0
2023-03-21T04:47:45.737Z,0
2023-03-21T04:48:46.315Z,0
2023-03-21T04:49:46.966Z,0
2023-03-21T04:50:47.560Z,0
2023-03-21T04:51:48.158Z,0
2023-03-21T04:52:48.760Z,0
2023-03-21T04:53:49.379Z,0
2023-03-21T04:54:49.954Z,0
2023-03-21T04:55:54.096Z,0
2023-03-21T04:56:51.160Z,0
2023-03-21T04:57:51.753Z,0
2023-03-21T04:58:52.348Z,0
2023-03-21T04:59:52.956Z,0
2023-03-21T05:00:53.575Z,0
2023-03-21T05:01:54.154Z,0
2023-03-21T05:02:54.767Z,0
2023-03-21T05:03:55.400Z,0
2023-03-21T05:04:55.956Z,0
2023-03-21T05:05:56.557Z,0
2023-03-21T05:06:57.145Z,0
2023-03-21T05:07:57.744Z,0
2023-03-21T05:08:58.359Z,0
2023-03-21T05:10:00.774Z,0
2023-03-21T05:11:00.560Z,0
2023-03-21T05:12:01.155Z,0
2023-03-21T05:13:01.750Z,0
2023-03-21T05:14:02.365Z,0
2023-03-21T05:15:02.982Z,0
2023-03-21T05:16:03.579Z,5
2023-03-21T05:17:04.218Z,5
2023-03-21T05:18:04.798Z,5
2023-03-21T05:19:05.393Z,5
2023-03-21T05:20:06.016Z,11
2023-03-21T05:21:06.629Z,11
2023-03-21T05:22:07.227Z,11
2023-03-21T05:23:07.824Z,11
2023-03-21T05:24:08.423Z,16
2023-03-21T05:25:09.041Z,16
2023-03-21T05:26:09.647Z,16
2023-03-21T05:27:10.260Z,16
2023-03-21T05:28:10.839Z,22
2023-03-21T05:29:11.440Z,22
2023-03-21T05:30:12.061Z,22
2023-03-21T05:31:12.672Z,22
2023-03-21T05:32:13.246Z,28
2023-03-21T05:33:13.850Z,28
2023-03-21T05:34:14.465Z,28
2023-03-21T05:35:15.046Z,33
2023-03-21T05:36:15.705Z,33
2023-03-21T05:37:16.278Z,33
2023-03-21T05:38:16.888Z,39
2023-03-21T05:39:17.512Z,39
2023-03-21T05:40:18.123Z,39
2023-03-21T05:41:19.327Z,45
2023-03-21T05:42:19.950Z,45
2023-03-21T05:43:20.557Z,45
2023-03-21T05:44:21.148Z,45
2023-03-21T05:45:21.758Z,50
2023-03-21T05:46:22.493Z,50
2023-03-21T05:47:23.085Z,56
2023-03-21T05:48:23.670Z,61
2023-03-21T05:49:24.273Z,67
2023-03-21T05:50:24.867Z,67
2023-03-21T05:51:25.472Z,67
2023-03-21T05:52:26.070Z,67
2023-03-21T05:53:26.691Z,61
2023-03-21T05:54:27.300Z,67
2023-03-21T05:55:27.887Z,67
2023-03-21T05:56:28.498Z,73
2023-03-21T05:57:29.136Z,73
2023-03-21T05:58:29.705Z,78
2023-03-21T05:59:30.303Z,73
2023-03-21T06:00:30.900Z,78
2023-03-21T06:01:31.501Z,84
2023-03-21T06:02:32.166Z,90
2023-03-21T06:03:32.863Z,101
2023-03-21T06:04:33.448Z,106
2023-03-21T06:05:34.056Z,106
2023-03-21T06:06:34.668Z,106
2023-03-21T06:07:35.264Z,106
2023-03-21T06:08:35.864Z,106
2023-03-21T06:09:36.462Z,106
2023-03-21T06:10:37.092Z,112
2023-03-21T06:11:37.718Z,123
2023-03-21T06:12:38.322Z,129
2023-03-21T06:13:38.935Z,140
2023-03-21T06:14:39.542Z,146
2023-03-21T06:15:40.356Z,146
2023-03-21T06:16:40.974Z,129
2023-03-21T06:17:41.559Z,123
2023-03-21T06:18:42.261Z,123
2023-03-21T06:19:42.857Z,140
2023-03-21T06:20:43.459Z,151
2023-03-21T06:21:44.060Z,157
2023-03-21T06:22:44.689Z,157
2023-03-21T06:23:45.283Z,168
2023-03-21T06:24:45.883Z,174
2023-03-21T06:25:46.483Z,174
2023-03-21T06:26:47.100Z,174
2023-03-21T06:27:47.696Z,180
2023-03-21T06:28:48.316Z,180
2023-03-21T06:29:48.943Z,180
2023-03-21T06:30:49.538Z,185
2023-03-21T06:31:50.136Z,196
2023-03-21T06:32:50.741Z,208
2023-03-21T06:33:51.332Z,213
2023-03-21T06:34:51.935Z,225
2023-03-21T06:35:52.630Z,225
2023-03-21T06:36:53.168Z,225
2023-03-21T06:37:53.788Z,230
2023-03-21T06:38:54.370Z,241
2023-03-21T06:39:55.659Z,247
2023-03-21T06:40:56.311Z,258
2023-03-21T06:41:56.908Z,270
2023-03-21T06:42:57.514Z,281
2023-03-21T06:43:58.108Z,286
2023-03-21T06:44:58.712Z,286
2023-03-21T06:45:59.309Z,298
2023-03-21T06:46:59.972Z,315
2023-03-21T06:48:00.634Z,326
2023-03-21T06:49:01.175Z,331
2023-03-21T06:50:01.774Z,326
2023-03-21T06:51:02.377Z,331
2023-03-21T06:52:02.975Z,326
2023-03-21T06:53:03.575Z,326
2023-03-21T06:54:04.175Z,326
2023-03-21T06:55:04.775Z,331
2023-03-21T06:56:05.376Z,326
2023-03-21T06:57:05.977Z,320
2023-03-21T06:58:06.580Z,315
2023-03-21T06:59:07.180Z,309
2023-03-21T07:00:07.781Z,320
2023-03-21T07:01:08.433Z,331
2023-03-21T07:02:09.140Z,337
2023-03-21T07:03:09.731Z,337
2023-03-21T07:04:10.329Z,348
2023-03-21T07:05:10.954Z,365
2023-03-21T07:06:11.623Z,376
2023-03-21T07:07:12.194Z,360
2023-03-21T07:08:12.798Z,365
2023-03-21T07:09:13.399Z,388
2023-03-21T07:10:14.007Z,410
2023-03-21T07:11:14.602Z,421
2023-03-21T07:12:15.223Z,433
2023-03-21T07:13:15.823Z,438
2023-03-21T07:14:16.427Z,444
2023-03-21T07:15:17.028Z,444
2023-03-21T07:16:17.667Z,450
2023-03-21T07:17:18.242Z,472
2023-03-21T07:18:18.844Z,500
2023-03-21T07:19:19.463Z,511
2023-03-21T07:20:20.044Z,517
2023-03-21T07:21:20.642Z,528
2023-03-21T07:22:21.260Z,540
2023-03-21T07:23:21.845Z,556
2023-03-21T07:24:22.452Z,573
2023-03-21T07:25:23.141Z,585
2023-03-21T07:26:23.715Z,596
2023-03-21T07:27:24.354Z,601
2023-03-21T07:28:24.929Z,613
2023-03-21T07:29:25.541Z,624
2023-03-21T07:30:26.135Z,624
2023-03-21T07:31:26.759Z,630
2023-03-21T07:32:27.367Z,646
2023-03-21T07:33:27.978Z,663
2023-03-21T07:34:28.583Z,680
2023-03-21T07:35:29.183Z,703
2023-03-21T07:36:29.788Z,708
2023-03-21T07:37:30.387Z,697
2023-03-21T07:38:31.019Z,663
2023-03-21T07:39:31.589Z,618
2023-03-21T07:40:32.198Z,579
2023-03-21T07:41:32.791Z,528
2023-03-21T07:42:33.412Z,534
2023-03-21T07:43:34.765Z,534
2023-03-21T07:44:35.637Z,562
2023-03-21T07:45:36.371Z,585
2023-03-21T07:46:37.060Z,607
2023-03-21T07:47:37.654Z,607
2023-03-21T07:48:38.255Z,573
2023-03-21T07:49:38.857Z,540
2023-03-21T07:50:39.477Z,568
2023-03-21T07:51:40.078Z,568
2023-03-21T07:52:40.685Z,562
2023-03-21T07:53:41.281Z,573
2023-03-21T07:54:41.884Z,568
2023-03-21T07:55:42.501Z,573
2023-03-21T07:56:43.087Z,545
2023-03-21T07:57:43.692Z,534
2023-03-21T07:58:44.310Z,528
2023-03-21T07:59:44.933Z,511
2023-03-21T08:00:45.552Z,506
2023-03-21T08:01:46.159Z,495
2023-03-21T08:02:46.754Z,461
2023-03-21T08:03:47.423Z,450
2023-03-21T08:04:48.002Z,433
2023-03-21T08:05:48.622Z,427
2023-03-21T08:06:49.239Z,427
2023-03-21T08:07:49.839Z,455
2023-03-21T08:08:50.465Z,495
2023-03-21T08:09:51.071Z,528
2023-03-21T08:10:51.675Z,540
2023-03-21T08:11:52.279Z,562
2023-03-21T08:12:52.895Z,613
2023-03-21T08:13:53.491Z,652
2023-03-21T08:14:54.095Z,669
2023-03-21T08:15:54.692Z,675
2023-03-21T08:16:55.449Z,646
2023-03-21T08:17:56.054Z,613
2023-03-21T08:18:56.668Z,540
2023-03-21T08:19:57.258Z,472
2023-03-21T08:20:57.861Z,483
2023-03-21T08:21:58.460Z,483
2023-03-21T08:22:59.070Z,444
2023-03-21T08:23:59.688Z,399
2023-03-21T08:25:00.294Z,388
2023-03-21T08:26:00.892Z,382
2023-03-21T08:27:01.494Z,393
2023-03-21T08:28:02.090Z,438
2023-03-21T08:29:02.694Z,523
2023-03-21T08:30:03.293Z,534
2023-03-21T08:31:03.959Z,517
2023-03-21T08:32:04.515Z,517
2023-03-21T08:33:05.115Z,517
2023-03-21T08:34:05.715Z,489
2023-03-21T08:35:06.319Z,455
2023-03-21T08:36:06.983Z,450
2023-03-21T08:37:07.589Z,461
2023-03-21T08:38:08.158Z,466
2023-03-21T08:39:08.768Z,528
2023-03-21T08:40:09.363Z,511
2023-03-21T08:41:09.967Z,483
2023-03-21T08:42:10.586Z,455
2023-03-21T08:43:13.643Z,421
2023-03-21T08:44:11.814Z,421
2023-03-21T08:45:12.409Z,466
2023-03-21T08:46:13.027Z,455
2023-03-21T08:47:13.620Z,455
2023-03-21T08:48:14.264Z,450
2023-03-21T08:49:14.851Z,450
2023-03-21T08:50:15.454Z,461
2023-03-21T08:51:16.082Z,540
2023-03-21T08:52:16.679Z,641
2023-03-21T08:53:17.280Z,686
2023-03-21T08:54:17.878Z,720
2023-03-21T08:55:18.480Z,731
2023-03-21T08:56:19.114Z,731
2023-03-21T08:57:19.685Z,714
2023-03-21T08:58:20.286Z,714
2023-03-21T08:59:20.889Z,736
2023-03-21T09:00:21.492Z,753
2023-03-21T09:01:22.149Z,776
2023-03-21T09:02:22.747Z,798
2023-03-21T09:03:23.365Z,838
2023-03-21T09:04:23.988Z,855
2023-03-21T09:05:24.565Z,843
2023-03-21T09:06:25.167Z,810
2023-03-21T09:07:25.768Z,787
2023-03-21T09:08:26.370Z,753
2023-03-21T09:09:26.973Z,725
2023-03-21T09:10:27.591Z,731
2023-03-21T09:11:28.214Z,714
2023-03-21T09:12:28.833Z,663
2023-03-21T09:13:29.441Z,618
2023-03-21T09:14:30.041Z,545
2023-03-21T09:15:30.679Z,472
2023-03-21T09:16:31.314Z,461
2023-03-21T09:17:31.889Z,506
2023-03-21T09:18:32.494Z,568
2023-03-21T09:19:33.093Z,613
2023-03-21T09:20:33.690Z,630
2023-03-21T09:21:34.291Z,646
2023-03-21T09:22:34.893Z,691
2023-03-21T09:23:35.512Z,720
2023-03-21T09:24:36.115Z,753
2023-03-21T09:25:37.040Z,798
2023-03-21T09:26:37.766Z,804
2023-03-21T09:27:38.370Z,742
2023-03-21T09:28:38.993Z,720
2023-03-21T09:29:39.575Z,753
2023-03-21T09:30:40.168Z,759
2023-03-21T09:31:40.843Z,680
2023-03-21T09:32:41.381Z,686
2023-03-21T09:33:42.004Z,652
2023-03-21T09:34:42.606Z,618
2023-03-21T09:35:43.251Z,562
2023-03-21T09:36:43.805Z,624
2023-03-21T09:37:44.408Z,691
2023-03-21T09:38:45.038Z,714
2023-03-21T09:39:45.631Z,691
2023-03-21T09:40:46.233Z,669
2023-03-21T09:41:46.855Z,708
2023-03-21T09:42:47.456Z,787
2023-03-21T09:43:48.058Z,798
2023-03-21T09:44:48.678Z,787
2023-03-21T09:45:49.279Z,855
2023-03-21T09:46:49.886Z,843
2023-03-21T09:47:50.491Z,900
2023-03-21T09:48:57.019Z,826
2023-03-21T09:49:54.672Z,843
2023-03-21T09:50:54.276Z,866
2023-03-21T09:51:54.882Z,849
2023-03-21T09:52:55.487Z,877
2023-03-21T09:53:57.211Z,900
2023-03-21T09:54:57.693Z,900
2023-03-21T09:55:58.290Z,877
2023-03-21T09:56:58.892Z,866
2023-03-21T09:57:59.501Z,838
2023-03-21T09:59:00.117Z,849
2023-03-21T10:00:00.716Z,866
2023-03-21T10:01:01.357Z,911
2023-03-21T10:02:01.928Z,939
2023-03-21T10:03:02.525Z,928
2023-03-21T10:04:03.205Z,911
2023-03-21T10:05:03.818Z,860
2023-03-21T10:06:04.422Z,855
2023-03-21T10:07:05.054Z,888
2023-03-21T10:08:05.674Z,838
2023-03-21T10:09:06.275Z,860
2023-03-21T10:10:06.867Z,810
2023-03-21T10:11:07.468Z,770
2023-03-21T10:12:08.070Z,776
2023-03-21T10:13:08.670Z,753
2023-03-21T10:14:09.276Z,736
2023-03-21T10:15:09.899Z,720
2023-03-21T10:16:10.570Z,669
2023-03-21T10:17:11.121Z,607
2023-03-21T10:18:11.720Z,607
2023-03-21T10:19:12.321Z,635
2023-03-21T10:20:12.923Z,703
2023-03-21T10:21:14.190Z,781
2023-03-21T10:22:15.139Z,821
2023-03-21T10:23:15.740Z,900
2023-03-21T10:24:16.375Z,1018
2023-03-21T10:25:16.993Z,1074
2023-03-21T10:26:18.825Z,1136
2023-03-21T10:27:19.162Z,1125
2023-03-21T10:28:19.772Z,1130
2023-03-21T10:29:20.399Z,1158
2023-03-21T10:30:20.991Z,1147
2023-03-21T10:31:21.598Z,1125
2023-03-21T10:32:22.190Z,1057
2023-03-21T10:33:22.843Z,1029
2023-03-21T10:34:23.492Z,945
2023-03-21T10:35:24.108Z,956
2023-03-21T10:36:24.711Z,928
2023-03-21T10:37:25.313Z,888
2023-03-21T10:38:25.926Z,843
2023-03-21T10:39:26.512Z,866
2023-03-21T10:40:27.118Z,866
2023-03-21T10:41:27.717Z,832
2023-03-21T10:42:28.335Z,826
2023-03-21T10:43:28.941Z,832
2023-03-21T10:44:29.561Z,753
2023-03-21T10:45:30.187Z,725
2023-03-21T10:46:30.946Z,714
2023-03-21T10:47:31.883Z,860
2023-03-21T10:48:32.586Z,995
2023-03-21T10:49:40.438Z,1006
2023-03-21T10:50:34.809Z,939
2023-03-21T10:51:35.410Z,961
2023-03-21T10:52:36.029Z,967
2023-03-21T10:53:36.652Z,1018
2023-03-21T10:54:37.236Z,1051
2023-03-21T10:55:38.166Z,1023
2023-03-21T10:56:38.812Z,990
2023-03-21T10:57:39.439Z,990
2023-03-21T10:58:40.033Z,928
2023-03-21T10:59:40.635Z,877
2023-03-21T11:00:41.321Z,945
2023-03-21T11:01:41.922Z,916
2023-03-21T11:02:42.549Z,928
2023-03-21T11:03:43.130Z,900
2023-03-21T11:04:43.730Z,900
2023-03-21T11:05:44.333Z,888
2023-03-21T11:06:44.955Z,900
2023-03-21T11:07:45.557Z,956
2023-03-21T11:08:46.157Z,956
2023-03-21T11:09:46.776Z,950
2023-03-21T11:10:47.377Z,1063
2023-03-21T11:11:47.977Z,1136
2023-03-21T11:12:48.599Z,1141
2023-03-21T11:13:49.184Z,1136
2023-03-21T11:14:49.789Z,1113
2023-03-21T11:15:50.393Z,1147
2023-03-21T11:16:51.101Z,1046
2023-03-21T11:17:51.617Z,1057
2023-03-21T11:18:52.241Z,1085
2023-03-21T11:19:52.813Z,1012
2023-03-21T11:20:53.414Z,933
2023-03-21T11:21:54.012Z,883
2023-03-21T11:22:54.613Z,916
2023-03-21T11:23:57.266Z,967
2023-03-21T11:24:56.806Z,1175
2023-03-21T11:25:57.412Z,1271
2023-03-21T11:26:58.010Z,1305
2023-03-21T11:27:58.615Z,1423
2023-03-21T11:28:59.212Z,1361
2023-03-21T11:29:59.832Z,1231
2023-03-21T11:31:00.527Z,1108
2023-03-21T11:32:01.100Z,1316
2023-03-21T11:33:01.711Z,1411
2023-03-21T11:34:02.305Z,1355
2023-03-21T11:35:02.903Z,1231
2023-03-21T11:36:03.570Z,1231
2023-03-21T11:37:04.131Z,1035
2023-03-21T11:38:04.757Z,1029
2023-03-21T11:39:05.360Z,1119
2023-03-21T11:40:05.955Z,1051
2023-03-21T11:41:06.566Z,939
2023-03-21T11:42:07.163Z,871
2023-03-21T11:43:07.767Z,725
2023-03-21T11:44:08.373Z,838
2023-03-21T11:45:08.959Z,900
2023-03-21T11:46:09.697Z,967
2023-03-21T11:47:10.281Z,956
2023-03-21T11:48:10.942Z,928
2023-03-21T11:49:11.538Z,843
2023-03-21T11:50:12.165Z,765
2023-03-21T11:51:12.755Z,601
2023-03-21T11:52:13.364Z,630
2023-03-21T11:53:13.955Z,596
2023-03-21T11:54:14.557Z,590
2023-03-21T11:55:15.166Z,742
2023-03-21T11:56:15.759Z,793
2023-03-21T11:57:16.381Z,866
2023-03-21T11:58:16.983Z,871
2023-03-21T11:59:17.580Z,776
2023-03-21T12:00:18.207Z,770
2023-03-21T12:01:18.800Z,793
2023-03-21T12:02:19.513Z,911
2023-03-21T12:03:20.123Z,928
2023-03-21T12:04:20.796Z,888
2023-03-21T12:05:21.315Z,871
2023-03-21T12:06:21.906Z,866
2023-03-21T12:07:22.507Z,832
2023-03-21T12:08:23.109Z,838
2023-03-21T12:09:23.745Z,838
2023-03-21T12:10:24.330Z,877
2023-03-21T12:11:24.949Z,916
2023-03-21T12:12:38.042Z,922
2023-03-21T12:13:27.148Z,928
2023-03-21T12:14:27.756Z,933
2023-03-21T12:15:28.348Z,911
2023-03-21T12:16:29.022Z,905
2023-03-21T12:17:29.562Z,866
2023-03-21T12:18:30.163Z,849
2023-03-21T12:19:30.765Z,832
2023-03-21T12:20:31.379Z,815
2023-03-21T12:21:31.965Z,832
2023-03-21T12:22:32.568Z,804
2023-03-21T12:23:33.213Z,793
2023-03-21T12:24:33.787Z,736
2023-03-21T12:25:34.463Z,680
2023-03-21T12:26:35.016Z,686
2023-03-21T12:27:36.026Z,585
2023-03-21T12:28:36.703Z,573
2023-03-21T12:29:37.243Z,534
2023-03-21T12:30:37.844Z,579
2023-03-21T12:31:38.507Z,601
2023-03-21T12:32:39.101Z,579
2023-03-21T12:33:39.698Z,568
2023-03-21T12:34:40.305Z,562
2023-03-21T12:35:41.272Z,551
2023-03-21T12:36:42.090Z,568
2023-03-21T12:37:42.674Z,562
2023-03-21T12:38:43.275Z,556
2023-03-21T12:39:43.879Z,517
2023-03-21T12:40:44.479Z,472
2023-03-21T12:41:45.085Z,455
2023-03-21T12:42:45.691Z,466
2023-03-21T12:43:46.366Z,472
2023-03-21T12:44:46.914Z,478
2023-03-21T12:45:47.905Z,495
2023-03-21T12:46:48.605Z,506
2023-03-21T12:47:49.148Z,506
2023-03-21T12:48:49.731Z,506
2023-03-21T12:49:50.330Z,500
2023-03-21T12:50:50.927Z,506
2023-03-21T12:51:51.532Z,528
2023-03-21T12:52:52.148Z,556
2023-03-21T12:53:52.748Z,568
2023-03-21T12:54:53.351Z,590
2023-03-21T12:55:53.948Z,607
2023-03-21T12:56:54.552Z,624
2023-03-21T12:57:57.864Z,646
2023-03-21T12:58:56.811Z,680
2023-03-21T12:59:57.354Z,703
2023-03-21T13:00:58.004Z,720
2023-03-21T13:01:58.584Z,742
2023-03-21T13:02:59.212Z,748
2023-03-21T13:03:59.868Z,742
2023-03-21T13:05:01.543Z,703
2023-03-21T13:06:01.082Z,748
2023-03-21T13:07:01.699Z,776
2023-03-21T13:08:02.318Z,793
2023-03-21T13:09:02.920Z,810
2023-03-21T13:10:03.520Z,815
2023-03-21T13:11:04.141Z,843
2023-03-21T13:12:04.745Z,849
2023-03-21T13:13:05.340Z,838
2023-03-21T13:14:06.011Z,787
2023-03-21T13:15:12.518Z,798
2023-03-21T13:16:08.246Z,793
2023-03-21T13:17:08.766Z,810
2023-03-21T13:18:09.367Z,838
2023-03-21T13:19:09.966Z,843
2023-03-21T13:20:10.613Z,855
2023-03-21T13:21:11.170Z,832
2023-03-21T13:22:11.790Z,776
2023-03-21T13:23:12.403Z,714
2023-03-21T13:24:12.998Z,669
2023-03-21T13:25:13.602Z,624
2023-03-21T13:26:14.222Z,624
2023-03-21T13:27:14.823Z,669
2023-03-21T13:28:15.430Z,669
2023-03-21T13:29:16.095Z,652
2023-03-21T13:30:16.644Z,641
2023-03-21T13:31:17.245Z,669
2023-03-21T13:32:17.876Z,658
2023-03-21T13:33:18.465Z,641
2023-03-21T13:34:19.127Z,630
2023-03-21T13:35:19.732Z,641
2023-03-21T13:36:20.363Z,635
2023-03-21T13:37:20.931Z,613
2023-03-21T13:38:21.526Z,607
2023-03-21T13:39:22.132Z,669
2023-03-21T13:40:22.730Z,680
2023-03-21T13:41:23.337Z,680
2023-03-21T13:42:23.951Z,703
2023-03-21T13:43:27.492Z,725
2023-03-21T13:44:26.219Z,770
2023-03-21T13:45:26.757Z,753
2023-03-21T13:46:27.411Z,759
2023-03-21T13:47:28.010Z,793
2023-03-21T13:48:28.627Z,821
2023-03-21T13:49:29.215Z,849
2023-03-21T13:50:29.826Z,855
2023-03-21T13:51:30.510Z,821
2023-03-21T13:52:31.120Z,781
2023-03-21T13:53:31.719Z,759
2023-03-21T13:54:32.320Z,804
2023-03-21T13:55:32.918Z,877
2023-03-21T13:56:33.517Z,849
2023-03-21T13:57:34.139Z,883
2023-03-21T13:58:34.765Z,905
2023-03-21T13:59:35.467Z,894
2023-03-21T14:00:35.990Z,871
2023-03-21T14:01:36.643Z,928
2023-03-21T14:02:39.431Z,984
2023-03-21T14:03:38.808Z,1012
2023-03-21T14:04:42.561Z,995
2023-03-21T14:05:41.346Z,945
2023-03-21T14:06:42.254Z,866
2023-03-21T14:07:42.836Z,781
2023-03-21T14:08:43.429Z,697
2023-03-21T14:09:44.048Z,641
2023-03-21T14:10:44.651Z,641
2023-03-21T14:11:47.032Z,613
2023-03-21T14:12:45.885Z,568
2023-03-21T14:13:51.225Z,528
2023-03-21T14:14:47.194Z,517
2023-03-21T14:15:55.255Z,562
2023-03-21T14:17:50.822Z,641
2023-03-21T14:18:54.478Z,646